Time;durP1;ratioP1;P1;durP2;ratioP2;P2;SDS_P1;SDS_P2;PMS_P1;PMS_P2;Temp;Humidity;BMP_temperature;BMP_pressure;BME280_temperature;BME280_humidity;BME280_pressure;Samples;Min_cycle;Max_cycle;Signal;HPM_P1;HPM_P2
2021/11/11 00:01:15;;;;;;;;;;;20.50;57.70;;;;;;3156863;28;19934;-50
2021/11/11 00:02:47;;;;;;;;;;;20.60;57.60;;;;;;3157249;28;19924;-53
2021/11/11 00:04:20;;;;;;;;;;;20.70;57.30;;;;;;3158276;28;20304;-53
2021/11/11 00:05:53;;;;;;;;;;;20.70;57.20;;;;;;3158184;28;19924;-49
2021/11/11 00:07:24;;;;;;;;;;;20.70;56.90;;;;;;3157392;28;19924;-55
2021/11/11 00:08:56;;;;;;;;;;;20.90;56.80;;;;;;3157663;28;19928;-52
2021/11/11 00:10:28;;;;;;;;;;;20.90;56.60;;;;;;3157590;28;19931;-49
2021/11/11 00:11:59;;;;;;;;;;;20.90;56.40;;;;;;3157114;28;19924;-50
2021/11/11 00:13:31;;;;;;;;;;;21.00;56.20;;;;;;3157986;28;19924;-53
2021/11/11 00:15:04;;;;;;;;;;;21.10;56.10;;;;;;3157901;28;19989;-51
2021/11/11 00:16:35;;;;;;;;;;;21.10;56.00;;;;;;3156256;28;19930;-52
2021/11/11 00:18:07;;;;;;;;;;;21.10;55.90;;;;;;3157983;28;20325;-49
2021/11/11 00:19:38;;;;;;;;;;;21.10;56.00;;;;;;3157169;28;19924;-49
2021/11/11 00:21:10;;;;;;;;;;;21.10;56.10;;;;;;3157851;28;19947;-50
2021/11/11 00:22:41;;;;;;;;;;;21.10;56.00;;;;;;3157425;28;19924;-53
2021/11/11 00:24:13;;;;;;;;;;;21.10;55.90;;;;;;3157789;28;19924;-52
2021/11/11 00:25:44;;;;;;;;;;;21.20;55.90;;;;;;3157869;28;19928;-49
2021/11/11 00:27:16;;;;;;;;;;;21.20;55.90;;;;;;3157578;28;20407;-54
2021/11/11 00:28:49;;;;;;;;;;;21.20;55.90;;;;;;3158095;28;19935;-50
2021/11/11 00:30:22;;;;;;;;;;;21.20;55.90;;;;;;3156024;28;19972;-51
2021/11/11 00:31:54;;;;;;;;;;;21.20;55.80;;;;;;3157632;28;19981;-52
2021/11/11 00:33:25;;;;;;;;;;;21.30;55.80;;;;;;3158446;28;19930;-52
2021/11/11 00:34:57;;;;;;;;;;;21.30;55.70;;;;;;3158153;28;19950;-51
2021/11/11 00:36:29;;;;;;;;;;;21.30;55.80;;;;;;3157239;28;20475;-51
2021/11/11 00:38:00;;;;;;;;;;;21.30;55.80;;;;;;3158135;28;20632;-51
2021/11/11 00:39:32;;;;;;;;;;;21.30;55.80;;;;;;3158160;28;19924;-49
2021/11/11 00:41:03;;;;;;;;;;;21.30;55.80;;;;;;3154480;28;19931;-50
2021/11/11 00:42:35;;;;;;;;;;;21.30;55.80;;;;;;3155778;28;20384;-52
2021/11/11 00:44:06;;;;;;;;;;;21.30;55.90;;;;;;3157413;28;19924;-51
2021/11/11 00:45:39;;;;;;;;;;;21.30;55.90;;;;;;3157155;28;20398;-53
2021/11/11 00:47:11;;;;;;;;;;;21.30;55.80;;;;;;3156553;28;20449;-54
2021/11/11 00:48:42;;;;;;;;;;;21.30;55.80;;;;;;3157242;28;19928;-51
2021/11/11 00:50:14;;;;;;;;;;;21.40;55.70;;;;;;3149334;28;19971;-49
2021/11/11 00:51:46;;;;;;;;;;;21.30;55.70;;;;;;3157029;28;19947;-49
2021/11/11 00:53:17;;;;;;;;;;;21.40;55.70;;;;;;3154790;28;19932;-53
2021/11/11 00:54:48;;;;;;;;;;;21.40;55.70;;;;;;3151449;28;19928;-51
2021/11/11 00:56:19;;;;;;;;;;;21.40;55.80;;;;;;3157040;28;20026;-56
2021/11/11 00:57:51;;;;;;;;;;;21.40;55.70;;;;;;3154678;28;19931;-50
2021/11/11 00:59:23;;;;;;;;;;;21.40;55.70;;;;;;3158801;28;19977;-49
2021/11/11 01:00:56;;;;;;;;;;;21.40;55.80;;;;;;3156410;28;20408;-52
2021/11/11 01:02:26;;;;;;;;;;;21.40;55.90;;;;;;3157028;28;19935;-51
2021/11/11 01:03:58;;;;;;;;;;;21.40;55.90;;;;;;3158806;28;19920;-53
2021/11/11 01:05:29;;;;;;;;;;;21.40;55.90;;;;;;3158281;28;19931;-53
2021/11/11 01:07:01;;;;;;;;;;;21.40;55.80;;;;;;3159387;28;19947;-52
2021/11/11 01:08:33;;;;;;;;;;;21.40;55.90;;;;;;3159146;28;19932;-52
2021/11/11 01:10:04;;;;;;;;;;;21.40;55.70;;;;;;3157065;28;19924;-52
2021/11/11 01:11:36;;;;;;;;;;;21.40;55.70;;;;;;3153625;28;19925;-54
2021/11/11 01:13:08;;;;;;;;;;;21.40;55.80;;;;;;3159589;28;20312;-54
2021/11/11 01:14:39;;;;;;;;;;;21.40;55.90;;;;;;3159490;28;19931;-50
2021/11/11 01:16:12;;;;;;;;;;;21.40;55.80;;;;;;3158916;28;19931;-53
2021/11/11 01:17:44;;;;;;;;;;;21.40;55.90;;;;;;3159090;28;20300;-54
2021/11/11 01:19:16;;;;;;;;;;;21.40;55.80;;;;;;3160011;28;20298;-52
2021/11/11 01:20:47;;;;;;;;;;;21.40;55.90;;;;;;3159151;28;19928;-55
2021/11/11 01:22:19;;;;;;;;;;;21.40;55.90;;;;;;3159240;28;19924;-53
2021/11/11 01:23:50;;;;;;;;;;;21.40;55.80;;;;;;3159915;28;19935;-51
2021/11/11 01:25:22;;;;;;;;;;;21.50;55.80;;;;;;3159814;28;20391;-52
2021/11/11 01:26:53;;;;;;;;;;;21.50;55.70;;;;;;3159083;28;19924;-52
2021/11/11 01:28:25;;;;;;;;;;;21.50;55.70;;;;;;3159642;28;19924;-50
2021/11/11 01:29:55;;;;;;;;;;;21.40;56.50;;;;;;3158892;28;19924;-49
2021/11/11 01:31:28;;;;;;;;;;;21.40;55.70;;;;;;3158059;28;20381;-54
2021/11/11 01:33:00;;;;;;;;;;;21.50;55.80;;;;;;3159222;28;19925;-53
2021/11/11 01:34:31;;;;;;;;;;;21.50;55.80;;;;;;3159465;28;19959;-54
2021/11/11 01:36:03;;;;;;;;;;;21.50;55.80;;;;;;3159359;28;19924;-49
2021/11/11 01:37:36;;;;;;;;;;;21.50;55.70;;;;;;3158647;28;20368;-49
2021/11/11 01:39:08;;;;;;;;;;;21.50;55.60;;;;;;3159455;28;19975;-52
2021/11/11 01:40:40;;;;;;;;;;;21.50;55.60;;;;;;3158106;28;19998;-51
2021/11/11 01:42:11;;;;;;;;;;;21.50;55.70;;;;;;3157684;28;19932;-50
2021/11/11 01:43:43;;;;;;;;;;;21.50;55.70;;;;;;3159142;28;20456;-50
2021/11/11 01:45:14;;;;;;;;;;;21.50;55.70;;;;;;3158800;28;19924;-49
2021/11/11 01:46:47;;;;;;;;;;;21.50;55.70;;;;;;3158335;28;19928;-50
2021/11/11 01:48:18;;;;;;;;;;;21.50;55.80;;;;;;3158868;28;20168;-52
2021/11/11 01:49:49;;;;;;;;;;;21.50;55.70;;;;;;3158590;28;19977;-49
2021/11/11 01:51:21;;;;;;;;;;;21.50;55.70;;;;;;3158550;28;19924;-49
2021/11/11 01:52:52;;;;;;;;;;;21.50;55.70;;;;;;3158866;28;20875;-51
2021/11/11 01:54:24;;;;;;;;;;;21.50;55.70;;;;;;3159089;28;20060;-48
2021/11/11 01:55:56;;;;;;;;;;;21.50;55.60;;;;;;3158279;28;19947;-54
2021/11/11 01:57:27;;;;;;;;;;;21.60;55.60;;;;;;3156048;28;19997;-55
2021/11/11 01:58:59;;;;;;;;;;;21.50;55.60;;;;;;3159226;28;19920;-49
2021/11/11 02:00:31;;;;;;;;;;;21.50;55.50;;;;;;3157302;28;20403;-50
2021/11/11 02:02:04;;;;;;;;;;;21.50;55.60;;;;;;3158776;28;19924;-50
2021/11/11 02:03:35;;;;;;;;;;;21.60;55.60;;;;;;3158993;28;19924;-53
2021/11/11 02:05:07;;;;;;;;;;;21.60;55.40;;;;;;3155292;28;19966;-51
2021/11/11 02:06:39;;;;;;;;;;;21.60;55.60;;;;;;3158109;28;19928;-50
2021/11/11 02:08:10;;;;;;;;;;;21.50;55.60;;;;;;3161893;28;19924;-51
2021/11/11 02:09:42;;;;;;;;;;;21.60;55.60;;;;;;3158243;28;20372;-54
2021/11/11 02:11:14;;;;;;;;;;;21.50;55.60;;;;;;3159063;28;19973;-57
2021/11/11 02:12:45;;;;;;;;;;;21.50;55.60;;;;;;3157472;28;19947;-51
2021/11/11 02:14:17;;;;;;;;;;;21.50;55.60;;;;;;3158013;28;19932;-50
2021/11/11 02:15:48;;;;;;;;;;;21.60;55.60;;;;;;3158061;28;19924;-54
2021/11/11 02:17:26;;;;;;;;;;;21.60;55.50;;;;;;3157315;28;19932;-52
2021/11/11 02:18:58;;;;;;;;;;;21.50;55.50;;;;;;3157957;28;20027;-54
2021/11/11 02:20:31;;;;;;;;;;;21.60;55.60;;;;;;3156635;28;19970;-51
2021/11/11 02:22:04;;;;;;;;;;;21.50;55.60;;;;;;3157704;28;19932;-52
2021/11/11 02:23:35;;;;;;;;;;;21.50;55.60;;;;;;3158148;28;19977;-50
2021/11/11 02:25:07;;;;;;;;;;;21.50;55.70;;;;;;3158044;28;19932;-52
2021/11/11 02:26:39;;;;;;;;;;;21.50;55.80;;;;;;3157494;28;19934;-49
2021/11/11 02:28:11;;;;;;;;;;;21.50;55.80;;;;;;3158613;28;19924;-53
2021/11/11 02:29:42;;;;;;;;;;;21.40;55.70;;;;;;3155894;28;20392;-51
2021/11/11 02:31:14;;;;;;;;;;;21.40;55.70;;;;;;3157755;28;20452;-51
2021/11/11 02:32:45;;;;;;;;;;;21.50;55.60;;;;;;3158195;28;19924;-50
2021/11/11 02:34:18;;;;;;;;;;;21.50;55.70;;;;;;3158430;28;19930;-51
2021/11/11 02:35:51;;;;;;;;;;;21.50;55.70;;;;;;3159078;28;19924;-54
2021/11/11 02:37:25;;;;;;;;;;;21.50;55.70;;;;;;3155268;28;19924;-50
2021/11/11 02:38:57;;;;;;;;;;;21.50;55.60;;;;;;3157813;28;19928;-51
2021/11/11 02:40:28;;;;;;;;;;;21.50;55.70;;;;;;3158019;28;19923;-52
2021/11/11 02:41:59;;;;;;;;;;;21.50;55.80;;;;;;3158317;28;19920;-53
2021/11/11 02:43:31;;;;;;;;;;;21.50;55.70;;;;;;3153330;28;19924;-49
2021/11/11 02:45:03;;;;;;;;;;;21.50;55.60;;;;;;3172833;22;20273;-49
2021/11/11 02:46:34;;;;;;;;;;;21.50;55.60;;;;;;3129122;28;19924;-52
2021/11/11 02:48:06;;;;;;;;;;;21.50;55.60;;;;;;3127382;28;19936;-53
2021/11/11 02:49:38;;;;;;;;;;;21.50;55.60;;;;;;3132609;28;19928;-53
2021/11/11 02:51:11;;;;;;;;;;;21.50;55.60;;;;;;3133180;28;19925;-49
2021/11/11 02:52:41;;;;;;;;;;;21.50;55.80;;;;;;3133222;28;19924;-53
2021/11/11 02:54:13;;;;;;;;;;;21.50;55.80;;;;;;3132927;28;19933;-50
2021/11/11 02:55:44;;;;;;;;;;;21.50;55.90;;;;;;3133354;28;20254;-54
2021/11/11 02:57:19;;;;;;;;;;;21.50;55.90;;;;;;3133343;28;19925;-49
2021/11/11 02:58:50;;;;;;;;;;;21.40;55.90;;;;;;3133814;28;20320;-54
2021/11/11 03:00:23;;;;;;;;;;;21.40;55.90;;;;;;3131741;28;20364;-55
2021/11/11 03:01:55;;;;;;;;;;;21.50;55.80;;;;;;3132892;28;20381;-55
2021/11/11 03:03:27;;;;;;;;;;;21.40;55.90;;;;;;3121468;28;19932;-51
2021/11/11 03:04:59;;;;;;;;;;;21.40;55.90;;;;;;3131782;28;19979;-49
2021/11/11 03:06:32;;;;;;;;;;;21.40;55.90;;;;;;3132554;28;19924;-53
2021/11/11 03:08:04;;;;;;;;;;;21.40;55.90;;;;;;3133979;28;19928;-54
2021/11/11 03:09:34;;;;;;;;;;;21.40;55.90;;;;;;3133632;28;20373;-51
2021/11/11 03:11:06;;;;;;;;;;;21.40;55.90;;;;;;3131750;28;19927;-51
2021/11/11 03:12:38;;;;;;;;;;;21.40;55.80;;;;;;3129660;28;20289;-50
2021/11/11 03:14:09;;;;;;;;;;;21.50;55.80;;;;;;3133217;28;19936;-53
2021/11/11 03:15:42;;;;;;;;;;;21.50;55.80;;;;;;3132931;28;19932;-53
2021/11/11 03:17:13;;;;;;;;;;;21.40;55.80;;;;;;3132670;28;19978;-54
2021/11/11 03:18:44;;;;;;;;;;;21.50;55.80;;;;;;3133593;28;20338;-53
2021/11/11 03:20:15;;;;;;;;;;;21.50;56.50;;;;;;3128593;28;19925;-50
2021/11/11 03:21:48;;;;;;;;;;;21.50;55.90;;;;;;3123381;28;19943;-53
2021/11/11 03:23:19;;;;;;;;;;;21.50;55.80;;;;;;3121311;28;19948;-50
2021/11/11 03:24:51;;;;;;;;;;;21.50;55.80;;;;;;3133447;28;19925;-49
2021/11/11 03:26:23;;;;;;;;;;;21.50;55.90;;;;;;3133331;28;20418;-52
2021/11/11 03:27:55;;;;;;;;;;;21.50;55.70;;;;;;3133066;28;19933;-54
2021/11/11 03:29:26;;;;;;;;;;;21.50;55.70;;;;;;3133252;28;20407;-54
2021/11/11 03:30:58;;;;;;;;;;;21.50;55.80;;;;;;3131518;28;19928;-49
2021/11/11 03:32:29;;;;;;;;;;;21.40;55.90;;;;;;3130314;28;20385;-49
2021/11/11 03:34:01;;;;;;;;;;;21.40;55.90;;;;;;3131777;28;19924;-49
2021/11/11 03:35:32;;;;;;;;;;;21.50;55.90;;;;;;3131864;28;20304;-51
2021/11/11 03:37:04;;;;;;;;;;;21.40;55.70;;;;;;3131641;28;19925;-51
2021/11/11 03:38:36;;;;;;;;;;;21.50;55.80;;;;;;3129048;28;19971;-48
2021/11/11 03:40:09;;;;;;;;;;;21.50;55.80;;;;;;3131607;28;20500;-51
2021/11/11 03:41:41;;;;;;;;;;;21.50;55.70;;;;;;3120822;28;19929;-50
2021/11/11 03:43:13;;;;;;;;;;;21.40;55.90;;;;;;3126443;28;20266;-49
2021/11/11 03:44:45;;;;;;;;;;;21.50;55.90;;;;;;3133320;28;19964;-51
2021/11/11 03:46:16;;;;;;;;;;;21.50;55.80;;;;;;3126561;28;19933;-48
2021/11/11 03:47:48;;;;;;;;;;;21.40;55.90;;;;;;3120263;28;20673;-54
2021/11/11 03:49:20;;;;;;;;;;;21.40;55.90;;;;;;3120835;28;19925;-56
2021/11/11 03:50:51;;;;;;;;;;;21.40;55.90;;;;;;3120333;28;19925;-53
2021/11/11 03:52:24;;;;;;;;;;;21.40;55.90;;;;;;3120328;28;19925;-52
2021/11/11 03:53:56;;;;;;;;;;;21.40;55.90;;;;;;3126730;28;19925;-52
2021/11/11 03:55:28;;;;;;;;;;;21.40;56.00;;;;;;3122443;28;19925;-49
2021/11/11 03:56:59;;;;;;;;;;;21.40;56.10;;;;;;3124166;28;19929;-49
2021/11/11 03:58:31;;;;;;;;;;;21.40;55.90;;;;;;3122661;28;19925;-51
2021/11/11 04:00:03;;;;;;;;;;;21.50;55.90;;;;;;3122515;28;19925;-49
2021/11/11 04:01:35;;;;;;;;;;;21.50;55.90;;;;;;3131996;28;19945;-49
2021/11/11 04:03:06;;;;;;;;;;;21.50;55.90;;;;;;3132938;28;19925;-55
2021/11/11 04:04:37;;;;;;;;;;;21.40;55.90;;;;;;3132875;28;20304;-50
2021/11/11 04:06:09;;;;;;;;;;;21.40;56.00;;;;;;3133114;28;19925;-53
2021/11/11 04:07:42;;;;;;;;;;;21.40;56.00;;;;;;3132346;28;19932;-49
2021/11/11 04:09:12;;;;;;;;;;;21.50;55.90;;;;;;3133126;28;19929;-50
2021/11/11 04:10:44;;;;;;;;;;;21.50;55.90;;;;;;3131925;28;20421;-49
2021/11/11 04:12:15;;;;;;;;;;;21.40;55.80;;;;;;3132093;28;19935;-53
2021/11/11 04:13:47;;;;;;;;;;;21.40;55.90;;;;;;3133786;28;20296;-52
2021/11/11 04:15:19;;;;;;;;;;;21.40;55.90;;;;;;3130954;28;19936;-51
2021/11/11 04:16:50;;;;;;;;;;;21.50;55.80;;;;;;3130342;28;20352;-50
2021/11/11 04:18:22;;;;;;;;;;;21.40;55.90;;;;;;3132706;28;20429;-49
2021/11/11 04:19:53;;;;;;;;;;;21.40;55.90;;;;;;3132466;28;19929;-53
2021/11/11 04:21:25;;;;;;;;;;;21.40;55.90;;;;;;3132967;28;20301;-49
2021/11/11 04:22:58;;;;;;;;;;;21.40;55.80;;;;;;3132335;28;19936;-49
2021/11/11 04:24:29;;;;;;;;;;;21.50;55.90;;;;;;3133368;28;19982;-55
2021/11/11 04:26:06;;;;;;;;;;;21.40;55.80;;;;;;3132727;28;20321;-49
2021/11/11 04:27:40;;;;;;;;;;;21.50;55.60;;;;;;3132418;28;20023;-55
2021/11/11 04:29:15;;;;;;;;;;;21.50;55.70;;;;;;3132699;28;19932;-49
2021/11/11 04:30:50;;;;;;;;;;;21.40;55.80;;;;;;3131954;28;20292;-52
2021/11/11 04:32:22;;;;;;;;;;;21.40;55.80;;;;;;3133238;28;19924;-50
2021/11/11 04:33:56;;;;;;;;;;;21.50;55.90;;;;;;3135464;28;20011;-54
2021/11/11 04:35:28;;;;;;;;;;;21.40;55.90;;;;;;3135264;28;19978;-52
2021/11/11 04:39:04;;;;;;;;;;;21.40;55.90;;;;;;3136017;28;19978;-49
2021/11/11 04:40:55;;;;;;;;;;;21.40;55.80;;;;;;3132317;28;20408;-51
2021/11/11 04:42:40;;;;;;;;;;;21.40;55.90;;;;;;3124715;28;20352;-54
2021/11/11 04:44:19;;;;;;;;;;;21.40;55.90;;;;;;3133954;28;19925;-49
2021/11/11 04:46:20;;;;;;;;;;;21.40;55.80;;;;;;3126908;28;19928;-56
2021/11/11 04:48:02;;;;;;;;;;;21.50;55.90;;;;;;3134653;28;20019;-50
2021/11/11 05:00:30;;;;;;;;;;;21.70;55.50;;;;;;3133438;28;20286;-49
2021/11/11 05:02:09;;;;;;;;;;;21.70;55.20;;;;;;3134436;28;19925;-51
2021/11/11 05:03:43;;;;;;;;;;;21.80;55.10;;;;;;3123134;28;19921;-48
2021/11/11 05:05:15;;;;;;;;;;;21.80;55.00;;;;;;3135014;28;19931;-49
2021/11/11 05:06:49;;;;;;;;;;;21.90;54.90;;;;;;3134201;28;19986;-49
2021/11/11 05:08:20;;;;;;;;;;;21.90;54.80;;;;;;3127503;28;19925;-52
2021/11/11 05:09:52;;;;;;;;;;;22.00;54.60;;;;;;3126140;28;19932;-50
2021/11/11 05:11:25;;;;;;;;;;;22.00;54.50;;;;;;3134452;28;20023;-55
2021/11/11 05:12:56;;;;;;;;;;;22.00;54.50;;;;;;3134409;28;19929;-52
2021/11/11 05:14:28;;;;;;;;;;;22.10;54.50;;;;;;3135355;28;19925;-48
2021/11/11 05:15:59;;;;;;;;;;;22.10;54.30;;;;;;3134086;28;19925;-49
2021/11/11 05:17:31;;;;;;;;;;;22.20;54.20;;;;;;3134252;28;19924;-50
2021/11/11 05:19:03;;;;;;;;;;;22.30;54.00;;;;;;3135221;28;19951;-55
2021/11/11 05:20:34;;;;;;;;;;;22.30;53.80;;;;;;3133687;28;19932;-50
2021/11/11 05:22:06;;;;;;;;;;;22.40;53.80;;;;;;3133931;28;19925;-53
2021/11/11 05:23:38;;;;;;;;;;;22.40;53.70;;;;;;3134437;28;20385;-50
2021/11/11 05:25:09;;;;;;;;;;;22.50;53.70;;;;;;3134708;28;19925;-56
2021/11/11 05:26:42;;;;;;;;;;;22.50;53.60;;;;;;3134439;28;20554;-51
2021/11/11 05:28:14;;;;;;;;;;;22.50;53.50;;;;;;3131067;28;20395;-51
2021/11/11 05:29:45;;;;;;;;;;;22.50;53.40;;;;;;3133636;28;19924;-53
2021/11/11 05:31:17;;;;;;;;;;;22.50;53.40;;;;;;3134216;28;19928;-49
2021/11/11 05:32:48;;;;;;;;;;;22.60;53.30;;;;;;3134378;28;19925;-49
2021/11/11 05:34:20;;;;;;;;;;;22.60;53.40;;;;;;3134753;28;20286;-49
2021/11/11 05:35:52;;;;;;;;;;;22.50;53.40;;;;;;3134120;28;19928;-55
2021/11/11 05:37:22;;;;;;;;;;;22.50;53.50;;;;;;3134546;28;19948;-49
2021/11/11 05:38:54;;;;;;;;;;;22.50;53.50;;;;;;3134364;28;19920;-53
2021/11/11 05:40:26;;;;;;;;;;;22.40;53.40;;;;;;3124841;28;19932;-49
2021/11/11 05:41:57;;;;;;;;;;;22.40;53.50;;;;;;3128076;28;20313;-49
2021/11/11 05:43:29;;;;;;;;;;;22.40;53.50;;;;;;3130602;28;19995;-53
2021/11/11 05:45:01;;;;;;;;;;;22.40;53.70;;;;;;3131759;28;19932;-50
2021/11/11 05:46:33;;;;;;;;;;;22.30;53.80;;;;;;3127044;28;19935;-50
2021/11/11 05:48:04;;;;;;;;;;;22.30;54.00;;;;;;3128065;28;19987;-54
2021/11/11 05:49:36;;;;;;;;;;;22.20;54.00;;;;;;3129758;28;19925;-51
2021/11/11 05:51:07;;;;;;;;;;;22.20;54.00;;;;;;3134332;28;20499;-52
2021/11/11 05:52:39;;;;;;;;;;;22.20;54.20;;;;;;3133746;28;19929;-49
2021/11/11 05:54:11;;;;;;;;;;;22.10;54.30;;;;;;3134855;28;20309;-53
2021/11/11 05:55:42;;;;;;;;;;;22.10;54.40;;;;;;3134022;28;19925;-50
2021/11/11 05:57:15;;;;;;;;;;;22.00;54.50;;;;;;3133434;28;19925;-49
2021/11/11 05:58:47;;;;;;;;;;;22.00;54.70;;;;;;3134834;28;20349;-50
2021/11/11 06:00:19;;;;;;;;;;;21.90;54.80;;;;;;3125686;28;19932;-48
2021/11/11 06:01:51;;;;;;;;;;;21.90;54.80;;;;;;3128587;28;19932;-51
2021/11/11 06:03:22;;;;;;;;;;;21.90;55.00;;;;;;3132578;28;19925;-49
2021/11/11 06:04:54;;;;;;;;;;;21.80;55.00;;;;;;3133870;28;19924;-48
2021/11/11 06:06:25;;;;;;;;;;;21.80;55.10;;;;;;3132282;28;19931;-49
2021/11/11 06:07:56;;;;;;;;;;;21.80;55.00;;;;;;3121549;28;19929;-49
2021/11/11 06:09:28;;;;;;;;;;;21.90;55.10;;;;;;3122203;28;20007;-54
2021/11/11 06:10:59;;;;;;;;;;;21.80;55.10;;;;;;3130945;28;19932;-49
2021/11/11 06:12:32;;;;;;;;;;;21.80;55.10;;;;;;3133937;28;19974;-53
2021/11/11 06:14:04;;;;;;;;;;;21.90;55.00;;;;;;3134202;28;19997;-51
2021/11/11 06:15:35;;;;;;;;;;;21.90;55.10;;;;;;3133586;28;19925;-49
2021/11/11 06:17:07;;;;;;;;;;;21.90;55.00;;;;;;3133441;28;20385;-55
2021/11/11 06:18:39;;;;;;;;;;;21.90;55.00;;;;;;3134198;28;20373;-51
2021/11/11 06:20:16;;;;;;;;;;;22.00;54.90;;;;;;3132964;28;19925;-55
2021/11/11 06:21:47;;;;;;;;;;;22.00;54.80;;;;;;3133684;28;19971;-49
2021/11/11 06:23:19;;;;;;;;;;;22.00;54.70;;;;;;3134548;28;19924;-54
2021/11/11 06:24:50;;;;;;;;;;;22.10;54.70;;;;;;3133946;28;20525;-55
2021/11/11 06:26:22;;;;;;;;;;;22.10;54.60;;;;;;3133502;28;19925;-55
2021/11/11 06:27:55;;;;;;;;;;;22.10;54.60;;;;;;3133589;28;19929;-52
2021/11/11 06:29:26;;;;;;;;;;;22.10;54.50;;;;;;3134724;28;19931;-49
2021/11/11 06:30:58;;;;;;;;;;;22.10;54.50;;;;;;3132387;28;20360;-52
2021/11/11 06:32:29;;;;;;;;;;;22.10;54.50;;;;;;3133425;28;19924;-52
2021/11/11 06:34:01;;;;;;;;;;;22.20;54.30;;;;;;3134238;28;20286;-53
2021/11/11 06:35:33;;;;;;;;;;;22.20;54.20;;;;;;3134461;28;19994;-52
2021/11/11 06:37:04;;;;;;;;;;;22.20;54.20;;;;;;3133325;28;20024;-49
2021/11/11 06:38:36;;;;;;;;;;;22.20;54.20;;;;;;3134131;28;19924;-50
2021/11/11 06:40:08;;;;;;;;;;;22.20;54.30;;;;;;3133085;28;19931;-52
2021/11/11 06:41:40;;;;;;;;;;;22.20;54.30;;;;;;3133487;28;19939;-50
2021/11/11 06:43:13;;;;;;;;;;;22.20;54.30;;;;;;3133881;28;19986;-50
2021/11/11 06:44:47;;;;;;;;;;;22.20;54.20;;;;;;3130587;28;19959;-54
2021/11/11 06:46:19;;;;;;;;;;;22.20;54.20;;;;;;3127216;28;20357;-51
2021/11/11 06:47:51;;;;;;;;;;;22.20;54.20;;;;;;3127754;28;19925;-54
2021/11/11 06:49:23;;;;;;;;;;;22.20;54.30;;;;;;3132183;28;19929;-50
2021/11/11 06:50:54;;;;;;;;;;;22.10;54.20;;;;;;3132449;28;20404;-55
2021/11/11 06:52:26;;;;;;;;;;;22.20;54.20;;;;;;3132112;28;19925;-50
2021/11/11 06:53:57;;;;;;;;;;;22.20;54.20;;;;;;3127276;28;20408;-49
2021/11/11 06:55:29;;;;;;;;;;;22.10;54.20;;;;;;3127167;28;19925;-50
2021/11/11 06:57:00;;;;;;;;;;;22.10;54.40;;;;;;3128028;28;19925;-54
2021/11/11 06:58:33;;;;;;;;;;;22.10;54.30;;;;;;3123294;28;19925;-51
2021/11/11 07:00:05;;;;;;;;;;;22.10;54.40;;;;;;3132028;28;19932;-51
2021/11/11 07:01:37;;;;;;;;;;;22.10;54.50;;;;;;3132568;28;19925;-53
2021/11/11 07:03:09;;;;;;;;;;;22.10;55.00;;;;;;3131376;28;19931;-54
2021/11/11 07:04:40;;;;;;;;;;;22.10;55.00;;;;;;3124801;28;19952;-49
2021/11/11 07:06:12;;;;;;;;;;;22.10;55.10;;;;;;3132380;28;19932;-50
2021/11/11 07:07:43;;;;;;;;;;;22.10;54.80;;;;;;3133138;28;19932;-49
2021/11/11 07:09:15;;;;;;;;;;;22.20;54.50;;;;;;3133516;28;20305;-53
2021/11/11 07:10:48;;;;;;;;;;;22.20;54.40;;;;;;3132305;28;19932;-51
2021/11/11 07:12:19;;;;;;;;;;;22.30;54.20;;;;;;3132739;28;19931;-53
2021/11/11 07:13:52;;;;;;;;;;;22.30;53.90;;;;;;3133098;28;19929;-52
2021/11/11 07:15:24;;;;;;;;;;;22.40;53.60;;;;;;3131684;28;19959;-53
2021/11/11 07:16:58;;;;;;;;;;;22.40;53.90;;;;;;3132524;28;19929;-53
2021/11/11 07:18:30;;;;;;;;;;;22.50;54.10;;;;;;3133229;28;20373;-53
2021/11/11 07:20:01;;;;;;;;;;;22.60;54.40;;;;;;3132321;28;20008;-52
2021/11/11 07:21:33;;;;;;;;;;;22.60;55.10;;;;;;3132983;28;19929;-52
2021/11/11 07:23:04;;;;;;;;;;;22.60;56.20;;;;;;3131344;28;20016;-52
2021/11/11 07:24:36;;;;;;;;;;;22.70;55.90;;;;;;3121092;28;20035;-53
2021/11/11 07:26:08;;;;;;;;;;;22.70;55.40;;;;;;3124236;28;20270;-51
2021/11/11 07:27:39;;;;;;;;;;;22.70;56.00;;;;;;3130234;28;19978;-56
2021/11/11 07:29:12;;;;;;;;;;;22.70;55.20;;;;;;3131353;28;19932;-51
2021/11/11 07:30:44;;;;;;;;;;;22.70;55.20;;;;;;3124229;28;19932;-51
2021/11/11 07:32:16;;;;;;;;;;;22.80;55.30;;;;;;3125656;28;19925;-51
2021/11/11 07:33:48;;;;;;;;;;;22.70;55.20;;;;;;3133063;28;19991;-50
2021/11/11 07:35:24;;;;;;;;;;;22.70;55.00;;;;;;3132769;28;19925;-53
2021/11/11 07:36:57;;;;;;;;;;;22.70;54.80;;;;;;3114105;28;19925;-51
2021/11/11 07:38:28;;;;;;;;;;;22.70;55.00;;;;;;3120760;28;19933;-51
2021/11/11 07:40:00;;;;;;;;;;;22.70;55.00;;;;;;3125025;28;19974;-49
2021/11/11 07:41:33;;;;;;;;;;;22.70;55.10;;;;;;3127242;28;20004;-52
2021/11/11 07:43:05;;;;;;;;;;;22.70;55.10;;;;;;3132631;28;19925;-54
2021/11/11 07:44:38;;;;;;;;;;;22.60;55.10;;;;;;3128846;28;19975;-53
2021/11/11 07:46:09;;;;;;;;;;;22.60;55.20;;;;;;3128809;28;19971;-52
2021/11/11 07:47:41;;;;;;;;;;;22.60;55.00;;;;;;3129415;28;20459;-51
2021/11/11 07:49:12;;;;;;;;;;;22.60;55.00;;;;;;3131364;28;19924;-49
2021/11/11 07:50:44;;;;;;;;;;;22.60;55.20;;;;;;3125086;28;19929;-49
2021/11/11 07:52:16;;;;;;;;;;;22.60;55.10;;;;;;3127267;28;19978;-54
2021/11/11 07:53:47;;;;;;;;;;;22.60;55.00;;;;;;3126630;28;19929;-50
2021/11/11 07:55:19;;;;;;;;;;;22.60;55.10;;;;;;3129573;28;19929;-51
2021/11/11 07:56:50;;;;;;;;;;;22.50;55.40;;;;;;3130337;28;19932;-50
2021/11/11 07:58:22;;;;;;;;;;;22.40;55.80;;;;;;3129264;28;19925;-55
2021/11/11 07:59:55;;;;;;;;;;;22.30;55.80;;;;;;3132262;28;19932;-56
2021/11/11 08:01:27;;;;;;;;;;;22.30;56.50;;;;;;3131684;28;19986;-58
2021/11/11 08:02:58;;;;;;;;;;;22.30;55.80;;;;;;3131194;28;19928;-61
2021/11/11 08:04:30;;;;;;;;;;;22.10;55.30;;;;;;3123911;28;20374;-61
2021/11/11 08:06:01;;;;;;;;;;;22.00;55.00;;;;;;3131819;28;19928;-58
2021/11/11 08:07:34;;;;;;;;;;;22.00;54.90;;;;;;3130658;28;19972;-54
2021/11/11 08:09:05;;;;;;;;;;;22.00;54.50;;;;;;3133357;28;19924;-54
2021/11/11 08:10:37;;;;;;;;;;;22.00;54.30;;;;;;3123936;28;19925;-60
2021/11/11 08:12:09;;;;;;;;;;;22.10;54.80;;;;;;3132768;28;19928;-60
2021/11/11 08:13:40;;;;;;;;;;;22.20;54.10;;;;;;3133035;28;20400;-52
2021/11/11 08:15:14;;;;;;;;;;;22.30;53.70;;;;;;3132416;28;19924;-58
2021/11/11 08:16:46;;;;;;;;;;;22.40;53.60;;;;;;3132520;28;19925;-57
2021/11/11 08:18:17;;;;;;;;;;;22.50;53.20;;;;;;3132814;28;19975;-60
2021/11/11 08:19:53;;;;;;;;;;;22.70;53.20;;;;;;3128129;28;20630;-54
2021/11/11 08:21:25;;;;;;;;;;;22.80;52.90;;;;;;3130837;28;20693;-58
2021/11/11 08:22:56;;;;;;;;;;;22.80;52.80;;;;;;3132971;28;19972;-55
2021/11/11 08:24:28;;;;;;;;;;;22.80;52.70;;;;;;3123291;28;19948;-52
2021/11/11 08:26:03;;;;;;;;;;;22.90;52.80;;;;;;3120583;28;19929;-55
2021/11/11 08:27:35;;;;;;;;;;;22.90;52.80;;;;;;3120563;28;20676;-56
2021/11/11 08:29:07;;;;;;;;;;;22.90;52.90;;;;;;3129094;28;19971;-57
2021/11/11 08:30:40;;;;;;;;;;;22.80;53.10;;;;;;3125482;28;20339;-58
2021/11/11 08:32:12;;;;;;;;;;;22.80;53.20;;;;;;3128332;28;20365;-58
2021/11/11 08:33:44;;;;;;;;;;;22.80;53.40;;;;;;3125197;28;20008;-60
2021/11/11 08:35:15;;;;;;;;;;;22.70;54.10;;;;;;3127902;28;19924;-58
2021/11/11 08:36:47;;;;;;;;;;;22.70;54.10;;;;;;3127471;28;19933;-57
2021/11/11 08:38:19;;;;;;;;;;;22.70;54.00;;;;;;3130841;28;21000;-60
2021/11/11 08:39:51;;;;;;;;;;;22.70;54.50;;;;;;3129426;28;19924;-60
2021/11/11 08:41:23;;;;;;;;;;;22.70;55.00;;;;;;3131687;28;20381;-60
2021/11/11 08:42:57;;;;;;;;;;;22.80;56.30;;;;;;3125702;28;20286;-60
2021/11/11 08:44:28;;;;;;;;;;;22.80;56.60;;;;;;3130636;28;20289;-56
2021/11/11 08:46:04;;;;;;;;;;;22.80;56.70;;;;;;3230004;22;19924;-61
2021/11/11 08:47:38;;;;;;;;;;;22.80;56.70;;;;;;3139916;28;19938;-61
2021/11/11 08:49:10;;;;;;;;;;;22.70;57.00;;;;;;3145671;28;19924;-61
2021/11/11 08:50:42;;;;;;;;;;;22.70;57.20;;;;;;3145272;28;19963;-61
2021/11/11 08:52:13;;;;;;;;;;;22.60;57.80;;;;;;3144991;28;19929;-61
2021/11/11 08:53:45;;;;;;;;;;;22.60;57.80;;;;;;3145864;28;20127;-61
2021/11/11 08:55:17;;;;;;;;;;;22.50;58.10;;;;;;3146066;28;19978;-61
2021/11/11 08:56:49;;;;;;;;;;;22.50;58.10;;;;;;3145064;28;19982;-61
2021/11/11 08:58:21;;;;;;;;;;;22.50;58.10;;;;;;3146085;28;19986;-61
2021/11/11 08:59:54;;;;;;;;;;;22.50;58.30;;;;;;3145645;28;20391;-62
2021/11/11 09:01:27;;;;;;;;;;;22.40;58.10;;;;;;3144789;28;19955;-60
2021/11/11 09:03:00;;;;;;;;;;;22.40;58.50;;;;;;3145712;28;20291;-59
2021/11/11 09:04:31;;;;;;;;;;;22.50;59.50;;;;;;3146041;28;19925;-60
2021/11/11 09:06:03;;;;;;;;;;;22.70;59.00;;;;;;3145559;28;19932;-61
2021/11/11 09:07:38;;;;;;;;;;;22.60;58.30;;;;;;3145222;28;20381;-61
2021/11/11 09:09:11;;;;;;;;;;;22.50;58.70;;;;;;3145361;28;19924;-61